sensor_id;sensor_type;location;lat;lon;timestamp;temperature;humidity
14378;DHT22;7272;53.668;9.578;2023-07-22T00:02:04;15.70;99.90
14378;DHT22;7272;53.668;9.578;2023-07-22T00:05:08;15.80;99.90
14378;DHT22;7272;53.668;9.578;2023-07-22T00:08:10;15.80;99.90
14378;DHT22;7272;53.668;9.578;2023-07-22T00:11:12;15.80;99.90
14378;DHT22;7272;53.668;9.578;2023-07-22T00:14:13;15.80;99.90
14378;DHT22;7272;53.668;9.578;2023-07-22T00:17:14;15.70;99.90
14378;DHT22;7272;53.668;9.578;2023-07-22T00:20:18;15.70;99.90
14378;DHT22;7272;53.668;9.578;2023-07-22T00:23:20;15.70;99.90
14378;DHT22;7272;53.668;9.578;2023-07-22T00:26:22;15.70;99.90
14378;DHT22;7272;53.668;9.578;2023-07-22T00:29:23;15.70;99.90
14378;DHT22;7272;53.668;9.578;2023-07-22T00:32:25;15.70;99.90
14378;DHT22;7272;53.668;9.578;2023-07-22T00:35:27;15.60;99.90
14378;DHT22;7272;53.668;9.578;2023-07-22T00:38:28;15.50;99.90
14378;DHT22;7272;53.668;9.578;2023-07-22T00:41:29;15.50;99.90
14378;DHT22;7272;53.668;9.578;2023-07-22T00:44:31;15.40;99.90
14378;DHT22;7272;53.668;9.578;2023-07-22T00:47:33;15.40;99.90
14378;DHT22;7272;53.668;9.578;2023-07-22T00:50:36;15.40;99.90
14378;DHT22;7272;53.668;9.578;2023-07-22T00:53:39;15.30;99.90
14378;DHT22;7272;53.668;9.578;2023-07-22T00:56:41;15.20;99.90
14378;DHT22;7272;53.668;9.578;2023-07-22T00:59:43;15.20;99.90
14378;DHT22;7272;53.668;9.578;2023-07-22T01:02:45;15.20;99.90
14378;DHT22;7272;53.668;9.578;2023-07-22T01:05:48;15.10;99.90
14378;DHT22;7272;53.668;9.578;2023-07-22T01:08:52;15.20;99.90
14378;DHT22;7272;53.668;9.578;2023-07-22T01:11:53;15.30;99.90
14378;DHT22;7272;53.668;9.578;2023-07-22T01:14:55;15.20;99.90
14378;DHT22;7272;53.668;9.578;2023-07-22T01:17:56;15.20;99.90
14378;DHT22;7272;53.668;9.578;2023-07-22T01:21:02;15.10;99.90
14378;DHT22;7272;53.668;9.578;2023-07-22T01:24:06;15.00;99.90
14378;DHT22;7272;53.668;9.578;2023-07-22T01:27:08;14.90;99.90
14378;DHT22;7272;53.668;9.578;2023-07-22T01:30:11;14.90;99.90
14378;DHT22;7272;53.668;9.578;2023-07-22T01:33:13;15.00;99.90
14378;DHT22;7272;53.668;9.578;2023-07-22T01:36:14;15.10;99.90
14378;DHT22;7272;53.668;9.578;2023-07-22T01:39:17;15.10;99.90
14378;DHT22;7272;53.668;9.578;2023-07-22T01:42:19;15.00;99.90
14378;DHT22;7272;53.668;9.578;2023-07-22T01:45:20;15.00;99.90
14378;DHT22;7272;53.668;9.578;2023-07-22T01:48:22;14.90;99.90
14378;DHT22;7272;53.668;9.578;2023-07-22T01:51:24;14.80;99.90
14378;DHT22;7272;53.668;9.578;2023-07-22T01:54:26;14.80;99.90
14378;DHT22;7272;53.668;9.578;2023-07-22T01:57:28;14.80;99.90
14378;DHT22;7272;53.668;9.578;2023-07-22T02:00:29;14.70;99.90
14378;DHT22;7272;53.668;9.578;2023-07-22T02:03:31;14.70;99.90
14378;DHT22;7272;53.668;9.578;2023-07-22T02:06:32;14.70;99.90
14378;DHT22;7272;53.668;9.578;2023-07-22T02:09:36;14.60;99.90
14378;DHT22;7272;53.668;9.578;2023-07-22T02:12:37;14.60;99.90
14378;DHT22;7272;53.668;9.578;2023-07-22T02:15:41;14.50;99.90
14378;DHT22;7272;53.668;9.578;2023-07-22T02:18:43;14.50;99.90
14378;DHT22;7272;53.668;9.578;2023-07-22T02:21:44;14.50;99.90
14378;DHT22;7272;53.668;9.578;2023-07-22T02:24:46;14.50;99.90
14378;DHT22;7272;53.668;9.578;2023-07-22T02:27:48;14.50;99.90
14378;DHT22;7272;53.668;9.578;2023-07-22T02:30:51;14.50;99.90
14378;DHT22;7272;53.668;9.578;2023-07-22T02:33:53;14.50;99.90
14378;DHT22;7272;53.668;9.578;2023-07-22T02:36:54;14.50;99.90
14378;DHT22;7272;53.668;9.578;2023-07-22T02:39:56;14.50;99.90
14378;DHT22;7272;53.668;9.578;2023-07-22T02:42:58;14.50;99.90
14378;DHT22;7272;53.668;9.578;2023-07-22T02:46:00;14.50;99.90
14378;DHT22;7272;53.668;9.578;2023-07-22T02:49:02;14.50;99.90
14378;DHT22;7272;53.668;9.578;2023-07-22T02:52:04;14.50;99.90
14378;DHT22;7272;53.668;9.578;2023-07-22T02:55:08;14.50;99.90
14378;DHT22;7272;53.668;9.578;2023-07-22T02:58:11;14.40;99.90
14378;DHT22;7272;53.668;9.578;2023-07-22T03:01:13;14.40;99.90
14378;DHT22;7272;53.668;9.578;2023-07-22T03:04:14;14.40;99.90
14378;DHT22;7272;53.668;9.578;2023-07-22T03:07:16;14.50;99.90
14378;DHT22;7272;53.668;9.578;2023-07-22T03:10:18;14.50;99.90
14378;DHT22;7272;53.668;9.578;2023-07-22T03:13:20;14.40;99.90
14378;DHT22;7272;53.668;9.578;2023-07-22T03:16:21;14.40;99.90
14378;DHT22;7272;53.668;9.578;2023-07-22T03:19:22;14.40;99.90
14378;DHT22;7272;53.668;9.578;2023-07-22T03:22:24;14.40;99.90
14378;DHT22;7272;53.668;9.578;2023-07-22T03:25:26;14.30;99.90
14378;DHT22;7272;53.668;9.578;2023-07-22T03:28:28;14.40;99.90
14378;DHT22;7272;53.668;9.578;2023-07-22T03:31:29;14.40;99.90
14378;DHT22;7272;53.668;9.578;2023-07-22T03:34:31;14.50;99.90
14378;DHT22;7272;53.668;9.578;2023-07-22T03:37:32;14.50;99.90
14378;DHT22;7272;53.668;9.578;2023-07-22T03:40:34;14.40;99.90
14378;DHT22;7272;53.668;9.578;2023-07-22T03:43:36;14.30;99.90
14378;DHT22;7272;53.668;9.578;2023-07-22T03:46:37;14.30;99.90
14378;DHT22;7272;53.668;9.578;2023-07-22T03:49:39;14.30;99.90
14378;DHT22;7272;53.668;9.578;2023-07-22T03:52:40;14.20;99.90
14378;DHT22;7272;53.668;9.578;2023-07-22T03:55:43;14.30;99.90
14378;DHT22;7272;53.668;9.578;2023-07-22T03:58:44;14.40;99.90
14378;DHT22;7272;53.668;9.578;2023-07-22T04:01:46;14.40;99.90
14378;DHT22;7272;53.668;9.578;2023-07-22T04:07:51;14.40;99.90
14378;DHT22;7272;53.668;9.578;2023-07-22T04:10:53;14.30;99.90
14378;DHT22;7272;53.668;9.578;2023-07-22T04:13:55;14.30;99.90
14378;DHT22;7272;53.668;9.578;2023-07-22T04:16:56;14.30;99.90
14378;DHT22;7272;53.668;9.578;2023-07-22T04:19:58;14.40;99.90
14378;DHT22;7272;53.668;9.578;2023-07-22T04:23:00;14.50;99.90
14378;DHT22;7272;53.668;9.578;2023-07-22T04:26:04;14.50;99.90
14378;DHT22;7272;53.668;9.578;2023-07-22T04:29:08;14.40;99.90
14378;DHT22;7272;53.668;9.578;2023-07-22T04:32:11;14.50;99.90
14378;DHT22;7272;53.668;9.578;2023-07-22T04:35:13;14.50;99.90
14378;DHT22;7272;53.668;9.578;2023-07-22T04:38:14;14.60;99.90
14378;DHT22;7272;53.668;9.578;2023-07-22T04:41:16;14.50;99.90
14378;DHT22;7272;53.668;9.578;2023-07-22T04:44:19;14.50;99.90
14378;DHT22;7272;53.668;9.578;2023-07-22T04:47:20;14.50;99.90
14378;DHT22;7272;53.668;9.578;2023-07-22T04:50:21;14.70;99.90
14378;DHT22;7272;53.668;9.578;2023-07-22T04:53:23;14.70;99.90
14378;DHT22;7272;53.668;9.578;2023-07-22T04:56:25;14.60;99.90
14378;DHT22;7272;53.668;9.578;2023-07-22T04:59:27;14.70;99.90
14378;DHT22;7272;53.668;9.578;2023-07-22T05:02:28;14.70;99.90
14378;DHT22;7272;53.668;9.578;2023-07-22T05:05:31;14.70;99.90
14378;DHT22;7272;53.668;9.578;2023-07-22T05:08:33;14.70;99.90
14378;DHT22;7272;53.668;9.578;2023-07-22T05:11:35;14.90;99.90
14378;DHT22;7272;53.668;9.578;2023-07-22T05:14:36;15.00;99.90
14378;DHT22;7272;53.668;9.578;2023-07-22T05:17:38;15.00;99.90
14378;DHT22;7272;53.668;9.578;2023-07-22T05:20:39;15.00;99.90
14378;DHT22;7272;53.668;9.578;2023-07-22T05:23:41;15.10;99.90
14378;DHT22;7272;53.668;9.578;2023-07-22T05:26:43;15.10;99.90
14378;DHT22;7272;53.668;9.578;2023-07-22T05:29:44;15.10;99.90
14378;DHT22;7272;53.668;9.578;2023-07-22T05:32:46;15.10;99.90
14378;DHT22;7272;53.668;9.578;2023-07-22T05:35:47;15.10;99.90
14378;DHT22;7272;53.668;9.578;2023-07-22T05:38:49;15.30;99.90
14378;DHT22;7272;53.668;9.578;2023-07-22T05:41:51;15.30;99.90
14378;DHT22;7272;53.668;9.578;2023-07-22T05:44:53;15.30;99.90
14378;DHT22;7272;53.668;9.578;2023-07-22T05:47:55;15.40;99.90
14378;DHT22;7272;53.668;9.578;2023-07-22T05:50:56;15.40;99.90
14378;DHT22;7272;53.668;9.578;2023-07-22T05:53:57;15.50;99.90
14378;DHT22;7272;53.668;9.578;2023-07-22T05:57:00;15.50;99.90
14378;DHT22;7272;53.668;9.578;2023-07-22T06:00:02;15.60;99.90
14378;DHT22;7272;53.668;9.578;2023-07-22T06:03:13;15.60;99.90
14378;DHT22;7272;53.668;9.578;2023-07-22T06:06:14;15.80;99.90
14378;DHT22;7272;53.668;9.578;2023-07-22T06:09:16;15.90;99.90
14378;DHT22;7272;53.668;9.578;2023-07-22T06:12:18;15.90;99.90
14378;DHT22;7272;53.668;9.578;2023-07-22T06:15:19;16.00;99.90
14378;DHT22;7272;53.668;9.578;2023-07-22T06:18:21;16.00;99.90
14378;DHT22;7272;53.668;9.578;2023-07-22T06:21:22;16.10;99.90
14378;DHT22;7272;53.668;9.578;2023-07-22T06:24:24;16.10;99.90
14378;DHT22;7272;53.668;9.578;2023-07-22T06:27:26;16.30;99.90
14378;DHT22;7272;53.668;9.578;2023-07-22T06:30:27;16.40;99.90
14378;DHT22;7272;53.668;9.578;2023-07-22T06:33:29;16.50;99.90
14378;DHT22;7272;53.668;9.578;2023-07-22T06:36:30;16.60;99.90
14378;DHT22;7272;53.668;9.578;2023-07-22T06:39:32;16.60;99.90
14378;DHT22;7272;53.668;9.578;2023-07-22T06:42:34;16.60;99.90
14378;DHT22;7272;53.668;9.578;2023-07-22T06:45:35;16.70;99.90
14378;DHT22;7272;53.668;9.578;2023-07-22T06:48:37;16.70;99.90
14378;DHT22;7272;53.668;9.578;2023-07-22T06:51:38;16.70;99.90
14378;DHT22;7272;53.668;9.578;2023-07-22T06:54:40;16.80;99.90
14378;DHT22;7272;53.668;9.578;2023-07-22T06:57:42;16.90;99.90
14378;DHT22;7272;53.668;9.578;2023-07-22T07:00:44;17.00;99.90
14378;DHT22;7272;53.668;9.578;2023-07-22T07:03:45;17.10;99.90
14378;DHT22;7272;53.668;9.578;2023-07-22T07:06:46;17.20;99.90
14378;DHT22;7272;53.668;9.578;2023-07-22T07:09:47;17.20;99.90
14378;DHT22;7272;53.668;9.578;2023-07-22T07:12:50;17.20;99.90
14378;DHT22;7272;53.668;9.578;2023-07-22T07:15:51;17.30;99.90
14378;DHT22;7272;53.668;9.578;2023-07-22T07:18:53;17.50;99.90
14378;DHT22;7272;53.668;9.578;2023-07-22T07:21:55;17.70;99.90
14378;DHT22;7272;53.668;9.578;2023-07-22T07:24:57;17.70;99.90
14378;DHT22;7272;53.668;9.578;2023-07-22T07:28:00;17.70;99.90
14378;DHT22;7272;53.668;9.578;2023-07-22T07:31:01;17.90;99.90
14378;DHT22;7272;53.668;9.578;2023-07-22T07:34:03;18.00;99.90
14378;DHT22;7272;53.668;9.578;2023-07-22T07:37:05;18.10;99.90
14378;DHT22;7272;53.668;9.578;2023-07-22T07:40:08;18.10;99.90
14378;DHT22;7272;53.668;9.578;2023-07-22T07:43:10;18.20;99.90
14378;DHT22;7272;53.668;9.578;2023-07-22T07:46:12;18.30;99.90
14378;DHT22;7272;53.668;9.578;2023-07-22T07:49:14;18.40;99.90
14378;DHT22;7272;53.668;9.578;2023-07-22T07:52:15;18.50;99.90
14378;DHT22;7272;53.668;9.578;2023-07-22T07:55:17;18.60;99.90
14378;DHT22;7272;53.668;9.578;2023-07-22T07:58:19;18.70;99.90
14378;DHT22;7272;53.668;9.578;2023-07-22T08:01:21;18.70;99.90
14378;DHT22;7272;53.668;9.578;2023-07-22T08:04:22;18.70;99.90
14378;DHT22;7272;53.668;9.578;2023-07-22T08:07:24;18.80;99.90
14378;DHT22;7272;53.668;9.578;2023-07-22T08:10:26;19.00;99.90
14378;DHT22;7272;53.668;9.578;2023-07-22T08:13:28;19.00;99.90
14378;DHT22;7272;53.668;9.578;2023-07-22T08:16:32;19.20;99.90
14378;DHT22;7272;53.668;9.578;2023-07-22T08:19:33;19.10;99.90
14378;DHT22;7272;53.668;9.578;2023-07-22T08:22:34;19.30;99.90
14378;DHT22;7272;53.668;9.578;2023-07-22T08:25:36;19.50;99.90
14378;DHT22;7272;53.668;9.578;2023-07-22T08:28:38;19.60;99.90
14378;DHT22;7272;53.668;9.578;2023-07-22T08:31:39;19.60;99.90
14378;DHT22;7272;53.668;9.578;2023-07-22T08:34:41;19.50;99.90
14378;DHT22;7272;53.668;9.578;2023-07-22T08:37:42;19.70;99.90
14378;DHT22;7272;53.668;9.578;2023-07-22T08:40:44;19.70;99.90
14378;DHT22;7272;53.668;9.578;2023-07-22T08:43:46;19.70;99.90
14378;DHT22;7272;53.668;9.578;2023-07-22T08:46:50;19.80;99.90
14378;DHT22;7272;53.668;9.578;2023-07-22T08:49:58;19.70;99.90
14378;DHT22;7272;53.668;9.578;2023-07-22T08:53:02;19.90;99.90
14378;DHT22;7272;53.668;9.578;2023-07-22T08:56:04;20.40;99.90
14378;DHT22;7272;53.668;9.578;2023-07-22T08:59:07;20.80;99.90
14378;DHT22;7272;53.668;9.578;2023-07-22T09:02:11;20.90;99.90
14378;DHT22;7272;53.668;9.578;2023-07-22T09:05:13;21.10;99.90
14378;DHT22;7272;53.668;9.578;2023-07-22T09:08:14;21.30;99.90
14378;DHT22;7272;53.668;9.578;2023-07-22T09:11:19;21.40;99.90
14378;DHT22;7272;53.668;9.578;2023-07-22T09:14:22;21.90;99.90
14378;DHT22;7272;53.668;9.578;2023-07-22T09:17:24;22.20;99.90
14378;DHT22;7272;53.668;9.578;2023-07-22T09:20:26;22.00;99.90
14378;DHT22;7272;53.668;9.578;2023-07-22T09:23:33;21.90;99.90
14378;DHT22;7272;53.668;9.578;2023-07-22T09:26:34;21.70;99.90
14378;DHT22;7272;53.668;9.578;2023-07-22T09:29:38;21.60;99.90
14378;DHT22;7272;53.668;9.578;2023-07-22T09:32:40;21.80;99.90
14378;DHT22;7272;53.668;9.578;2023-07-22T09:35:46;21.90;99.90
14378;DHT22;7272;53.668;9.578;2023-07-22T09:38:59;22.20;99.90
14378;DHT22;7272;53.668;9.578;2023-07-22T09:42:01;22.50;99.90
14378;DHT22;7272;53.668;9.578;2023-07-22T09:45:07;22.40;99.90
14378;DHT22;7272;53.668;9.578;2023-07-22T09:48:09;22.40;99.90
14378;DHT22;7272;53.668;9.578;2023-07-22T09:51:14;22.60;99.90
14378;DHT22;7272;53.668;9.578;2023-07-22T09:54:17;22.90;99.90
14378;DHT22;7272;53.668;9.578;2023-07-22T09:57:20;22.90;99.90
14378;DHT22;7272;53.668;9.578;2023-07-22T10:00:24;22.50;99.90
14378;DHT22;7272;53.668;9.578;2023-07-22T10:03:29;22.10;99.90
14378;DHT22;7272;53.668;9.578;2023-07-22T10:06:33;22.20;99.90
14378;DHT22;7272;53.668;9.578;2023-07-22T10:09:35;22.40;99.90
14378;DHT22;7272;53.668;9.578;2023-07-22T10:12:42;22.40;99.90
14378;DHT22;7272;53.668;9.578;2023-07-22T10:15:45;22.40;99.90
14378;DHT22;7272;53.668;9.578;2023-07-22T10:18:48;22.80;99.90
14378;DHT22;7272;53.668;9.578;2023-07-22T10:21:50;23.30;99.90
14378;DHT22;7272;53.668;9.578;2023-07-22T10:24:52;23.20;99.90
14378;DHT22;7272;53.668;9.578;2023-07-22T10:27:54;23.40;99.90
14378;DHT22;7272;53.668;9.578;2023-07-22T10:30:57;23.50;99.90
14378;DHT22;7272;53.668;9.578;2023-07-22T10:33:59;23.40;99.90
14378;DHT22;7272;53.668;9.578;2023-07-22T10:37:00;23.00;99.90
14378;DHT22;7272;53.668;9.578;2023-07-22T10:40:16;22.80;99.90
14378;DHT22;7272;53.668;9.578;2023-07-22T10:43:24;22.50;99.90
14378;DHT22;7272;53.668;9.578;2023-07-22T10:46:35;22.80;99.90
14378;DHT22;7272;53.668;9.578;2023-07-22T10:49:44;22.90;99.90
14378;DHT22;7272;53.668;9.578;2023-07-22T10:52:46;22.80;99.90
14378;DHT22;7272;53.668;9.578;2023-07-22T10:56:10;22.70;99.90
14378;DHT22;7272;53.668;9.578;2023-07-22T10:59:13;22.40;99.90
14378;DHT22;7272;53.668;9.578;2023-07-22T11:02:23;22.00;99.90
14378;DHT22;7272;53.668;9.578;2023-07-22T11:05:48;21.60;99.90
14378;DHT22;7272;53.668;9.578;2023-07-22T11:08:50;21.40;99.90
14378;DHT22;7272;53.668;9.578;2023-07-22T11:11:53;21.40;99.90
14378;DHT22;7272;53.668;9.578;2023-07-22T11:15:03;21.40;99.90
14378;DHT22;7272;53.668;9.578;2023-07-22T11:18:07;21.30;99.90
14378;DHT22;7272;53.668;9.578;2023-07-22T11:21:10;21.30;99.90
14378;DHT22;7272;53.668;9.578;2023-07-22T11:24:12;21.60;99.90
14378;DHT22;7272;53.668;9.578;2023-07-22T11:27:13;21.90;99.90
14378;DHT22;7272;53.668;9.578;2023-07-22T11:30:15;22.40;99.90
14378;DHT22;7272;53.668;9.578;2023-07-22T11:33:17;22.50;99.90
14378;DHT22;7272;53.668;9.578;2023-07-22T11:36:19;22.50;99.90
14378;DHT22;7272;53.668;9.578;2023-07-22T11:39:21;22.30;99.90
14378;DHT22;7272;53.668;9.578;2023-07-22T11:42:24;22.10;99.90
14378;DHT22;7272;53.668;9.578;2023-07-22T11:45:25;21.80;99.90
14378;DHT22;7272;53.668;9.578;2023-07-22T11:48:28;21.40;99.90
14378;DHT22;7272;53.668;9.578;2023-07-22T11:51:29;21.30;99.90
14378;DHT22;7272;53.668;9.578;2023-07-22T11:54:32;21.30;99.90
14378;DHT22;7272;53.668;9.578;2023-07-22T11:57:33;21.10;99.90
14378;DHT22;7272;53.668;9.578;2023-07-22T12:00:35;21.00;99.90
14378;DHT22;7272;53.668;9.578;2023-07-22T12:03:37;20.80;99.90
14378;DHT22;7272;53.668;9.578;2023-07-22T12:06:38;20.70;99.90
14378;DHT22;7272;53.668;9.578;2023-07-22T12:09:40;20.80;99.90
14378;DHT22;7272;53.668;9.578;2023-07-22T12:12:43;20.80;99.90
14378;DHT22;7272;53.668;9.578;2023-07-22T12:15:59;20.60;99.90
14378;DHT22;7272;53.668;9.578;2023-07-22T12:19:01;20.40;99.90
14378;DHT22;7272;53.668;9.578;2023-07-22T12:22:03;20.10;99.90
14378;DHT22;7272;53.668;9.578;2023-07-22T12:25:05;19.80;99.90
14378;DHT22;7272;53.668;9.578;2023-07-22T12:28:07;19.60;99.90
14378;DHT22;7272;53.668;9.578;2023-07-22T12:31:09;19.60;99.90
14378;DHT22;7272;53.668;9.578;2023-07-22T12:34:12;19.50;99.90
14378;DHT22;7272;53.668;9.578;2023-07-22T12:37:13;19.40;99.90
14378;DHT22;7272;53.668;9.578;2023-07-22T12:40:14;19.10;99.90
14378;DHT22;7272;53.668;9.578;2023-07-22T12:43:16;19.00;99.90
14378;DHT22;7272;53.668;9.578;2023-07-22T12:46:17;18.90;99.90
14378;DHT22;7272;53.668;9.578;2023-07-22T12:49:20;18.90;99.90
14378;DHT22;7272;53.668;9.578;2023-07-22T12:52:21;19.00;99.90
14378;DHT22;7272;53.668;9.578;2023-07-22T12:55:23;19.00;99.90
14378;DHT22;7272;53.668;9.578;2023-07-22T12:58:24;19.10;99.90
14378;DHT22;7272;53.668;9.578;2023-07-22T13:01:25;19.20;99.90
14378;DHT22;7272;53.668;9.578;2023-07-22T13:04:28;19.20;99.90
14378;DHT22;7272;53.668;9.578;2023-07-22T13:07:29;19.30;99.90
14378;DHT22;7272;53.668;9.578;2023-07-22T13:10:31;19.40;99.90
14378;DHT22;7272;53.668;9.578;2023-07-22T13:13:37;19.50;99.90
14378;DHT22;7272;53.668;9.578;2023-07-22T13:16:38;19.40;99.90
14378;DHT22;7272;53.668;9.578;2023-07-22T13:19:41;19.30;99.90
14378;DHT22;7272;53.668;9.578;2023-07-22T13:22:43;19.10;99.90
14378;DHT22;7272;53.668;9.578;2023-07-22T13:25:44;19.10;99.90
14378;DHT22;7272;53.668;9.578;2023-07-22T13:28:46;19.10;99.90
14378;DHT22;7272;53.668;9.578;2023-07-22T13:31:47;19.10;99.90
14378;DHT22;7272;53.668;9.578;2023-07-22T13:34:50;19.10;99.90
14378;DHT22;7272;53.668;9.578;2023-07-22T13:37:51;19.10;99.90
14378;DHT22;7272;53.668;9.578;2023-07-22T13:40:52;19.10;99.90
14378;DHT22;7272;53.668;9.578;2023-07-22T13:43:54;19.20;99.90
14378;DHT22;7272;53.668;9.578;2023-07-22T13:46:55;19.30;99.90
14378;DHT22;7272;53.668;9.578;2023-07-22T13:49:57;19.30;99.90
14378;DHT22;7272;53.668;9.578;2023-07-22T13:52:59;19.20;99.90
14378;DHT22;7272;53.668;9.578;2023-07-22T13:56:00;19.00;99.90
14378;DHT22;7272;53.668;9.578;2023-07-22T13:59:02;18.70;99.90
14378;DHT22;7272;53.668;9.578;2023-07-22T14:02:05;18.40;99.90
14378;DHT22;7272;53.668;9.578;2023-07-22T14:05:08;18.30;99.90
14378;DHT22;7272;53.668;9.578;2023-07-22T14:08:09;18.20;99.90
14378;DHT22;7272;53.668;9.578;2023-07-22T14:11:11;18.30;99.90
14378;DHT22;7272;53.668;9.578;2023-07-22T14:14:12;18.10;99.90
14378;DHT22;7272;53.668;9.578;2023-07-22T14:17:13;18.00;99.90
14378;DHT22;7272;53.668;9.578;2023-07-22T14:20:16;18.10;99.90
14378;DHT22;7272;53.668;9.578;2023-07-22T14:23:17;18.10;99.90
14378;DHT22;7272;53.668;9.578;2023-07-22T14:26:18;18.20;99.90
14378;DHT22;7272;53.668;9.578;2023-07-22T14:29:21;18.20;99.90
14378;DHT22;7272;53.668;9.578;2023-07-22T14:32:23;18.20;99.90
14378;DHT22;7272;53.668;9.578;2023-07-22T14:35:24;18.30;99.90
14378;DHT22;7272;53.668;9.578;2023-07-22T14:38:26;18.30;99.90
14378;DHT22;7272;53.668;9.578;2023-07-22T14:41:29;18.30;99.90
14378;DHT22;7272;53.668;9.578;2023-07-22T14:44:30;18.30;99.90
14378;DHT22;7272;53.668;9.578;2023-07-22T14:47:32;18.40;99.90
14378;DHT22;7272;53.668;9.578;2023-07-22T14:50:34;18.50;99.90
14378;DHT22;7272;53.668;9.578;2023-07-22T14:53:35;18.60;99.90
14378;DHT22;7272;53.668;9.578;2023-07-22T14:56:36;18.60;99.90
14378;DHT22;7272;53.668;9.578;2023-07-22T14:59:38;18.60;99.90
14378;DHT22;7272;53.668;9.578;2023-07-22T15:02:39;18.60;99.90
14378;DHT22;7272;53.668;9.578;2023-07-22T15:05:42;18.50;99.90
14378;DHT22;7272;53.668;9.578;2023-07-22T15:08:43;18.60;99.90
14378;DHT22;7272;53.668;9.578;2023-07-22T15:11:45;18.60;99.90
14378;DHT22;7272;53.668;9.578;2023-07-22T15:14:46;18.70;99.90
14378;DHT22;7272;53.668;9.578;2023-07-22T15:17:47;18.70;99.90
14378;DHT22;7272;53.668;9.578;2023-07-22T15:20:50;18.70;99.90
14378;DHT22;7272;53.668;9.578;2023-07-22T15:23:51;18.80;99.90
14378;DHT22;7272;53.668;9.578;2023-07-22T15:26:53;18.70;99.90
14378;DHT22;7272;53.668;9.578;2023-07-22T15:29:54;18.80;99.90
14378;DHT22;7272;53.668;9.578;2023-07-22T15:32:55;18.80;99.90
14378;DHT22;7272;53.668;9.578;2023-07-22T15:35:57;18.70;99.90
14378;DHT22;7272;53.668;9.578;2023-07-22T15:38:59;18.70;99.90
14378;DHT22;7272;53.668;9.578;2023-07-22T15:42:00;18.70;99.90
14378;DHT22;7272;53.668;9.578;2023-07-22T15:45:02;18.70;99.90
14378;DHT22;7272;53.668;9.578;2023-07-22T15:48:05;18.70;99.90
14378;DHT22;7272;53.668;9.578;2023-07-22T15:51:07;18.70;99.90
14378;DHT22;7272;53.668;9.578;2023-07-22T15:54:08;18.50;99.90
14378;DHT22;7272;53.668;9.578;2023-07-22T15:57:10;18.40;99.90
14378;DHT22;7272;53.668;9.578;2023-07-22T16:00:12;18.20;99.90
14378;DHT22;7272;53.668;9.578;2023-07-22T16:03:13;18.00;99.90
14378;DHT22;7272;53.668;9.578;2023-07-22T16:06:18;17.90;99.90
14378;DHT22;7272;53.668;9.578;2023-07-22T16:09:19;17.80;99.90
14378;DHT22;7272;53.668;9.578;2023-07-22T16:12:21;17.90;99.90
14378;DHT22;7272;53.668;9.578;2023-07-22T16:15:22;17.80;99.90
14378;DHT22;7272;53.668;9.578;2023-07-22T16:18:24;17.80;99.90
14378;DHT22;7272;53.668;9.578;2023-07-22T16:21:27;17.70;99.90
14378;DHT22;7272;53.668;9.578;2023-07-22T16:24:28;17.70;99.90
14378;DHT22;7272;53.668;9.578;2023-07-22T16:27:30;17.60;99.90
14378;DHT22;7272;53.668;9.578;2023-07-22T16:30:31;17.60;99.90
14378;DHT22;7272;53.668;9.578;2023-07-22T16:33:33;17.60;99.90
14378;DHT22;7272;53.668;9.578;2023-07-22T16:36:35;17.50;99.90
14378;DHT22;7272;53.668;9.578;2023-07-22T16:39:36;17.50;99.90
14378;DHT22;7272;53.668;9.578;2023-07-22T16:42:38;17.40;99.90
14378;DHT22;7272;53.668;9.578;2023-07-22T16:45:39;17.40;99.90
14378;DHT22;7272;53.668;9.578;2023-07-22T16:48:41;17.40;99.90
14378;DHT22;7272;53.668;9.578;2023-07-22T16:51:43;17.50;99.90
14378;DHT22;7272;53.668;9.578;2023-07-22T16:54:44;17.40;99.90
14378;DHT22;7272;53.668;9.578;2023-07-22T16:57:46;17.30;99.90
14378;DHT22;7272;53.668;9.578;2023-07-22T17:00:47;17.30;99.90
14378;DHT22;7272;53.668;9.578;2023-07-22T17:03:49;17.20;99.90
14378;DHT22;7272;53.668;9.578;2023-07-22T17:06:51;17.20;99.90
14378;DHT22;7272;53.668;9.578;2023-07-22T17:09:52;17.40;99.90
14378;DHT22;7272;53.668;9.578;2023-07-22T17:12:54;17.40;99.90
14378;DHT22;7272;53.668;9.578;2023-07-22T17:15:55;17.40;99.90
14378;DHT22;7272;53.668;9.578;2023-07-22T17:18:57;17.30;99.90
14378;DHT22;7272;53.668;9.578;2023-07-22T17:21:59;17.30;99.90
14378;DHT22;7272;53.668;9.578;2023-07-22T17:25:00;17.30;99.90
14378;DHT22;7272;53.668;9.578;2023-07-22T17:28:02;17.20;99.90
14378;DHT22;7272;53.668;9.578;2023-07-22T17:31:03;17.30;99.90
14378;DHT22;7272;53.668;9.578;2023-07-22T17:34:04;17.40;99.90
14378;DHT22;7272;53.668;9.578;2023-07-22T17:37:07;17.30;99.90
14378;DHT22;7272;53.668;9.578;2023-07-22T17:40:09;17.30;99.90
14378;DHT22;7272;53.668;9.578;2023-07-22T17:43:10;17.20;99.90
14378;DHT22;7272;53.668;9.578;2023-07-22T17:46:11;17.10;99.90
14378;DHT22;7272;53.668;9.578;2023-07-22T17:49:13;17.10;99.90
14378;DHT22;7272;53.668;9.578;2023-07-22T17:52:15;17.20;99.90
14378;DHT22;7272;53.668;9.578;2023-07-22T17:55:16;17.20;99.90
14378;DHT22;7272;53.668;9.578;2023-07-22T17:58:18;17.10;99.90
14378;DHT22;7272;53.668;9.578;2023-07-22T18:01:19;17.10;99.90
14378;DHT22;7272;53.668;9.578;2023-07-22T18:04:21;17.00;99.90
14378;DHT22;7272;53.668;9.578;2023-07-22T18:07:23;16.90;99.90
14378;DHT22;7272;53.668;9.578;2023-07-22T18:10:24;16.90;99.90
14378;DHT22;7272;53.668;9.578;2023-07-22T18:13:26;16.90;99.90
14378;DHT22;7272;53.668;9.578;2023-07-22T18:16:27;17.00;99.90
14378;DHT22;7272;53.668;9.578;2023-07-22T18:19:28;17.00;99.90
14378;DHT22;7272;53.668;9.578;2023-07-22T18:22:31;16.90;99.90
14378;DHT22;7272;53.668;9.578;2023-07-22T18:25:32;16.90;99.90
14378;DHT22;7272;53.668;9.578;2023-07-22T18:28:33;16.80;99.90
14378;DHT22;7272;53.668;9.578;2023-07-22T18:31:35;16.80;99.90
14378;DHT22;7272;53.668;9.578;2023-07-22T18:34:36;16.80;99.90
14378;DHT22;7272;53.668;9.578;2023-07-22T18:37:39;16.80;99.90
14378;DHT22;7272;53.668;9.578;2023-07-22T18:40:43;16.80;99.90
14378;DHT22;7272;53.668;9.578;2023-07-22T18:43:44;16.80;99.90
14378;DHT22;7272;53.668;9.578;2023-07-22T18:46:47;16.80;99.90
14378;DHT22;7272;53.668;9.578;2023-07-22T18:49:48;16.70;99.90
14378;DHT22;7272;53.668;9.578;2023-07-22T18:52:50;16.70;99.90
14378;DHT22;7272;53.668;9.578;2023-07-22T18:55:51;16.70;99.90
14378;DHT22;7272;53.668;9.578;2023-07-22T18:58:53;16.70;99.90
14378;DHT22;7272;53.668;9.578;2023-07-22T19:01:55;16.70;99.90
14378;DHT22;7272;53.668;9.578;2023-07-22T19:04:57;16.70;99.90
14378;DHT22;7272;53.668;9.578;2023-07-22T19:07:59;16.70;99.90
14378;DHT22;7272;53.668;9.578;2023-07-22T19:11:00;16.70;99.90
14378;DHT22;7272;53.668;9.578;2023-07-22T19:14:03;16.70;99.90
14378;DHT22;7272;53.668;9.578;2023-07-22T19:17:05;16.60;99.90
14378;DHT22;7272;53.668;9.578;2023-07-22T19:20:07;16.70;99.90
14378;DHT22;7272;53.668;9.578;2023-07-22T19:23:09;16.80;99.90
14378;DHT22;7272;53.668;9.578;2023-07-22T19:26:10;16.80;99.90
14378;DHT22;7272;53.668;9.578;2023-07-22T19:29:12;16.70;99.90
14378;DHT22;7272;53.668;9.578;2023-07-22T19:32:13;16.70;99.90